Time;durP1;ratioP1;P1;durP2;ratioP2;P2;SDS_P1;SDS_P2;PMS_P1;PMS_P2;Temp;Humidity;BMP_temperature;BMP_pressure;BME280_temperature;BME280_humidity;BME280_pressure;Samples;Min_cycle;Max_cycle;Signal;HPM_P1;HPM_P2
2023/01/29 00:01:45;;;;;;;10.60;9.60;;;28.50;62.60;;;;;;4137643;28;20049;-43
2023/01/29 00:04:08;;;;;;;10.35;9.35;;;28.40;61.90;;;;;;4139265;28;20052;-41
2023/01/29 00:06:31;;;;;;;9.68;8.77;;;28.20;61.70;;;;;;4124776;28;20046;-46
2023/01/29 00:08:53;;;;;;;10.97;9.87;;;28.10;61.70;;;;;;4134913;28;20548;-44
2023/01/29 00:11:16;;;;;;;10.40;9.40;;;28.00;61.20;;;;;;4139778;28;20049;-43
2023/01/29 00:13:38;;;;;;;9.95;9.05;;;27.90;61.50;;;;;;4133917;28;20103;-48
2023/01/29 00:16:01;;;;;;;10.77;9.77;;;27.80;61.70;;;;;;4133668;28;20493;-42
2023/01/29 00:18:24;;;;;;;10.30;9.30;;;27.60;62.20;;;;;;4133163;28;20045;-41
2023/01/29 00:20:47;;;;;;;10.57;9.57;;;27.40;62.10;;;;;;4128148;28;20057;-41
2023/01/29 00:23:09;;;;;;;12.05;10.10;;;27.30;62.30;;;;;;4134396;28;20723;-41
2023/01/29 00:25:31;;;;;;;11.57;9.25;;;27.10;61.60;;;;;;4134385;28;20064;-41
2023/01/29 00:27:54;;;;;;;13.20;9.30;;;27.10;61.30;;;;;;4135958;28;20068;-41
2023/01/29 00:30:18;;;;;;;9.52;8.52;;;27.20;61.40;;;;;;4139010;28;20037;-43
2023/01/29 00:32:41;;;;;;;12.60;8.15;;;27.20;61.90;;;;;;4139488;28;20045;-42
2023/01/29 00:35:03;;;;;;;9.27;7.93;;;27.30;62.30;;;;;;4138932;28;20037;-42
2023/01/29 00:37:26;;;;;;;8.77;7.30;;;27.30;62.70;;;;;;4128884;28;20040;-42
2023/01/29 00:39:48;;;;;;;8.55;7.30;;;27.40;63.10;;;;;;4131304;28;20042;-44
2023/01/29 00:44:57;;;;;;;6.85;6.15;;;27.50;63.80;;;;;;4128631;28;20077;-43
2023/01/29 00:47:35;;;;;;;6.82;6.13;;;27.60;64.10;;;;;;4128948;28;20041;-42
2023/01/29 00:49:57;;;;;;;7.13;6.43;;;27.70;64.40;;;;;;4128518;28;20038;-44
2023/01/29 00:52:22;;;;;;;6.70;6.00;;;27.70;64.60;;;;;;4133348;28;20053;-42
2023/01/29 00:54:45;;;;;;;6.40;5.70;;;27.80;64.90;;;;;;4137994;28;20099;-42
2023/01/29 00:57:07;;;;;;;7.13;6.25;;;27.90;65.10;;;;;;4123477;28;20560;-44
2023/01/29 00:59:30;;;;;;;6.57;5.90;;;27.90;65.30;;;;;;4130814;28;20054;-42
2023/01/29 01:04:33;;;;;;;6.63;5.57;;;28.00;65.70;;;;;;4135007;28;20129;-43
2023/01/29 01:06:55;;;;;;;5.95;5.35;;;28.10;66.00;;;;;;4131123;28;20049;-42
2023/01/29 01:11:58;;;;;;;5.82;5.10;;;28.20;66.30;;;;;;4132040;28;21297;-42
2023/01/29 01:14:21;;;;;;;6.97;5.95;;;28.30;66.50;;;;;;4124052;28;20030;-42
2023/01/29 01:16:45;;;;;;;6.32;5.50;;;28.30;66.60;;;;;;4128518;28;20034;-43
2023/01/29 01:19:08;;;;;;;6.00;5.40;;;28.30;66.60;;;;;;4134439;28;20034;-43
2023/01/29 01:21:32;;;;;;;6.13;5.53;;;28.40;66.80;;;;;;4130222;28;20050;-42
2023/01/29 01:23:54;;;;;;;5.57;5.03;;;28.50;67.00;;;;;;4128238;28;20891;-42
2023/01/29 01:26:17;;;;;;;6.15;5.55;;;28.50;67.00;;;;;;4128343;28;20428;-43
2023/01/29 01:28:39;;;;;;;5.90;5.18;;;28.60;67.10;;;;;;4132784;28;20031;-46
2023/01/29 01:31:12;;;;;;;6.80;5.35;;;28.70;67.20;;;;;;4131385;28;20034;-43
2023/01/29 01:33:36;;;;;;;6.20;5.45;;;28.70;67.20;;;;;;4128693;28;20820;-45
2023/01/29 01:36:01;;;;;;;6.05;5.10;;;28.80;67.20;;;;;;4135106;28;20125;-42
2023/01/29 01:38:23;;;;;;;6.53;5.20;;;28.80;67.20;;;;;;4134812;28;20046;-42
2023/01/29 01:40:46;;;;;;;5.95;5.35;;;28.90;67.40;;;;;;4126939;28;20050;-42
2023/01/29 01:43:10;;;;;;;6.33;5.67;;;28.90;67.30;;;;;;4130364;28;20498;-42
2023/01/29 01:45:33;;;;;;;;;;;29.00;67.30;;;;;;4123342;28;20121;-42
2023/01/29 01:48:01;;;;;;;6.03;5.40;;;29.00;67.30;;;;;;4135398;28;19971;-44
2023/01/29 01:50:33;;;;;;;7.38;5.80;;;29.10;67.40;;;;;;4138118;28;20417;-42
2023/01/29 01:53:06;;;;;;;7.20;5.63;;;29.10;67.40;;;;;;4133135;28;20077;-45
2023/01/29 01:55:33;;;;;;;5.78;5.18;;;29.20;67.50;;;;;;4127965;28;20033;-42
2023/01/29 01:58:01;;;;;;;6.68;5.28;;;29.30;67.50;;;;;;4130042;28;20418;-43
2023/01/29 02:00:26;;;;;;;6.93;5.85;;;29.30;67.70;;;;;;4135946;28;20049;-44
2023/01/29 02:10:55;;;;;;;6.25;5.15;;;29.50;67.70;;;;;;4121953;28;20038;-43
2023/01/29 02:13:18;;;;;;;5.60;4.90;;;29.50;67.80;;;;;;4115955;28;20473;-43
2023/01/29 02:15:45;;;;;;;6.15;5.55;;;29.60;67.90;;;;;;4135435;28;20041;-45
2023/01/29 02:18:08;;;;;;;6.90;5.40;;;29.60;67.80;;;;;;4129718;28;20116;-44
2023/01/29 02:20:32;;;;;;;6.03;5.28;;;29.70;67.80;;;;;;4126969;28;20049;-46
2023/01/29 02:22:55;;;;;;;5.60;5.00;;;29.70;67.70;;;;;;4130130;28;20966;-46
2023/01/29 02:25:54;;;;;;;5.97;5.38;;;29.70;67.70;;;;;;4128258;28;20077;-46
2023/01/29 02:28:47;;;;;;;5.90;5.30;;;29.80;67.80;;;;;;4128887;28;20411;-46
2023/01/29 02:31:19;;;;;;;6.10;5.00;;;29.80;67.80;;;;;;4124716;28;20128;-41
2023/01/29 02:33:52;;;;;;;5.95;4.93;;;29.90;67.80;;;;;;4133437;28;20412;-42
2023/01/29 02:36:23;;;;;;;6.10;5.05;;;29.90;67.70;;;;;;4129936;28;20054;-43
2023/01/29 02:39:07;;;;;;;5.43;4.72;;;29.90;67.70;;;;;;4115333;28;20372;-46
2023/01/29 02:41:41;;;;;;;5.65;4.47;;;30.00;67.80;;;;;;4126274;28;20050;-44
2023/01/29 02:44:16;;;;;;;5.35;4.85;;;30.00;67.70;;;;;;4127023;28;20096;-45
2023/01/29 02:46:59;;;;;;;5.68;4.60;;;30.00;67.70;;;;;;4126254;28;20679;-43
2023/01/29 02:49:49;;;;;;;5.45;4.65;;;30.00;67.70;;;;;;4126599;28;20038;-48
2023/01/29 02:52:19;;;;;;;5.38;4.55;;;30.10;67.70;;;;;;4127080;28;20037;-43
2023/01/29 02:55:16;;;;;;;5.15;4.45;;;30.10;68.40;;;;;;4121966;28;20490;-43
2023/01/29 02:57:42;;;;;;;5.32;4.57;;;30.10;67.70;;;;;;4126630;28;20316;-45
2023/01/29 03:00:34;;;;;;;5.45;4.85;;;30.10;67.70;;;;;;4133974;28;20296;-42
2023/01/29 03:03:13;;;;;;;6.00;4.60;;;30.10;67.80;;;;;;4134860;28;20172;-43
2023/01/29 03:05:43;;;;;;;6.53;4.72;;;30.20;67.80;;;;;;4133200;28;20046;-42
2023/01/29 03:08:10;;;;;;;5.55;4.65;;;30.20;67.80;;;;;;4134426;28;20418;-42
2023/01/29 03:10:42;;;;;;;6.70;4.57;;;30.30;68.50;;;;;;4134392;28;20399;-42
2023/01/29 03:13:08;;;;;;;5.35;4.75;;;30.30;67.80;;;;;;4123697;28;20049;-42
2023/01/29 03:16:10;;;;;;;5.60;5.00;;;30.30;67.80;;;;;;4129819;28;20116;-42
2023/01/29 03:18:42;;;;;;;4.93;4.30;;;30.30;67.80;;;;;;4129332;28;20054;-43
2023/01/29 03:21:49;;;;;;;5.88;4.88;;;30.40;67.90;;;;;;4130615;28;20054;-42
2023/01/29 03:32:05;;;;;;;6.03;4.55;;;30.40;67.80;;;;;;4131439;28;20057;-43
2023/01/29 03:34:33;;;;;;;5.30;4.22;;;30.40;67.90;;;;;;4127685;28;20056;-43
2023/01/29 03:37:01;;;;;;;5.95;4.43;;;30.40;67.90;;;;;;4127913;28;20459;-44
2023/01/29 03:39:29;;;;;;;5.35;4.53;;;30.40;67.90;;;;;;4130774;28;20056;-42
2023/01/29 03:42:29;;;;;;;6.00;4.72;;;30.40;68.00;;;;;;4135795;28;20053;-42
2023/01/29 03:44:59;;;;;;;6.13;4.63;;;30.40;68.10;;;;;;4109435;28;20041;-42
2023/01/29 03:47:53;;;;;;;5.00;4.30;;;30.40;68.10;;;;;;4139714;28;20042;-43
2023/01/29 03:50:27;;;;;;;5.03;4.35;;;30.40;68.20;;;;;;4140064;28;20034;-43
2023/01/29 03:53:15;;;;;;;5.68;4.47;;;30.40;68.20;;;;;;4137501;28;20053;-43
2023/01/29 03:56:00;;;;;;;6.15;4.97;;;30.40;68.20;;;;;;4127519;28;20038;-42
2023/01/29 03:58:38;;;;;;;5.75;5.15;;;30.40;68.20;;;;;;4137144;28;20042;-44
2023/01/29 04:01:28;;;;;;;5.05;4.38;;;30.50;68.30;;;;;;4140450;28;20179;-42
2023/01/29 04:04:04;;;;;;;5.90;4.65;;;30.40;68.30;;;;;;4139824;28;20583;-43
2023/01/29 04:06:31;;;;;;;5.78;5.03;;;30.40;68.30;;;;;;4139148;28;20064;-43
2023/01/29 04:09:05;;;;;;;5.68;5.10;;;30.50;68.50;;;;;;4124707;28;20542;-44
2023/01/29 04:11:29;;;;;;;6.47;5.30;;;30.50;68.40;;;;;;4125525;28;20092;-42
2023/01/29 04:13:52;;;;;;;5.95;4.72;;;30.50;68.50;;;;;;4128427;28;20729;-43
2023/01/29 04:16:23;;;;;;;5.82;4.70;;;30.50;68.50;;;;;;4127192;28;20042;-43
2023/01/29 04:18:48;;;;;;;6.15;4.90;;;30.50;68.40;;;;;;4128746;28;20041;-43
2023/01/29 04:21:11;;;;;;;5.55;4.35;;;30.60;68.60;;;;;;4112035;28;20513;-43
2023/01/29 04:23:33;;;;;;;5.85;5.03;;;30.60;68.50;;;;;;4128462;28;20696;-44
2023/01/29 04:26:27;;;;;;;5.40;4.70;;;30.60;68.50;;;;;;4114635;28;20046;-41
2023/01/29 04:28:59;;;;;;;6.45;4.82;;;30.60;68.40;;;;;;4130512;28;20588;-44
2023/01/29 04:31:26;;;;;;;5.05;4.00;;;30.60;68.40;;;;;;4129064;28;20316;-43
2023/01/29 04:34:22;;;;;;;6.13;4.13;;;30.70;68.30;;;;;;4130890;28;20042;-43
2023/01/29 04:37:12;;;;;;;5.43;4.03;;;30.70;68.20;;;;;;4126091;28;20046;-43
2023/01/29 04:39:49;;;;;;;5.00;4.35;;;30.70;68.20;;;;;;4119636;28;20537;-45
2023/01/29 04:42:50;;;;;;;5.05;4.35;;;30.80;68.30;;;;;;4124100;28;20388;-42
2023/01/29 04:45:35;;;;;;;5.82;3.80;;;30.80;68.20;;;;;;4129832;28;20272;-42
2023/01/29 04:48:09;;;;;;;4.72;4.05;;;30.80;68.30;;;;;;4131154;28;20044;-42
2023/01/29 04:50:37;;;;;;;5.63;4.13;;;30.80;68.30;;;;;;4132966;28;20517;-42
2023/01/29 04:53:05;;;;;;;4.85;3.58;;;30.80;68.30;;;;;;4131318;28;20084;-42
2023/01/29 04:55:41;;;;;;;4.63;3.85;;;30.80;68.30;;;;;;4112925;28;20061;-44
2023/01/29 04:58:10;;;;;;;5.22;3.65;;;30.80;68.30;;;;;;4128948;28;20076;-42
2023/01/29 05:00:53;;;;;;;5.07;3.50;;;30.80;68.30;;;;;;4132797;28;20626;-44
2023/01/29 05:03:16;;;;;;;4.35;3.42;;;30.80;68.50;;;;;;4133810;28;20042;-42
2023/01/29 05:05:41;;;;;;;4.88;3.70;;;30.80;68.50;;;;;;4131726;28;20313;-42
2023/01/29 05:08:05;;;;;;;5.07;3.67;;;30.80;68.40;;;;;;4126783;28;20069;-46
2023/01/29 05:10:28;;;;;;;4.05;3.20;;;30.80;68.50;;;;;;4117924;28;20042;-42
2023/01/29 05:13:02;;;;;;;4.82;3.38;;;30.80;68.50;;;;;;4128099;28;20041;-44
2023/01/29 05:15:41;;;;;;;4.10;3.25;;;30.80;68.50;;;;;;4128190;28;20045;-41
2023/01/29 05:18:07;;;;;;;4.85;3.38;;;30.80;68.50;;;;;;4115311;28;20038;-41
2023/01/29 05:20:35;;;;;;;5.25;3.65;;;30.80;68.50;;;;;;4129753;28;20056;-42
2023/01/29 05:22:58;;;;;;;4.78;3.50;;;30.80;68.60;;;;;;4133167;28;20038;-41
2023/01/29 05:25:24;;;;;;;4.43;3.17;;;30.80;68.60;;;;;;4130062;28;20301;-42
2023/01/29 05:28:15;;;;;;;3.92;3.40;;;30.80;68.60;;;;;;4128800;28;20601;-42
2023/01/29 05:30:39;;;;;;;4.50;3.40;;;30.80;68.60;;;;;;4142718;28;20042;-42
2023/01/29 05:33:02;;;;;;;4.22;3.08;;;30.80;68.60;;;;;;4135717;28;20038;-42
2023/01/29 05:35:27;;;;;;;4.90;3.70;;;30.80;68.60;;;;;;4140533;28;20383;-41
2023/01/29 05:37:49;;;;;;;5.10;3.85;;;30.80;68.70;;;;;;4135430;28;20109;-41
2023/01/29 05:40:12;;;;;;;3.85;3.30;;;30.80;68.70;;;;;;4121763;28;20046;-41
2023/01/29 05:42:34;;;;;;;5.57;4.35;;;30.80;68.70;;;;;;4134740;28;20077;-41
2023/01/29 05:44:57;;;;;;;5.80;3.78;;;30.80;68.70;;;;;;4134484;28;20046;-42
2023/01/29 05:47:20;;;;;;;6.07;4.30;;;30.80;68.70;;;;;;4139102;28;20050;-41
2023/01/29 05:49:42;;;;;;;4.78;3.92;;;30.80;68.80;;;;;;4122380;28;20042;-42
2023/01/29 05:52:05;;;;;;;5.68;4.53;;;30.80;68.80;;;;;;4135566;28;20532;-42
2023/01/29 05:54:27;;;;;;;5.80;4.10;;;30.80;68.80;;;;;;4133279;28;20050;-43
2023/01/29 05:56:49;;;;;;;5.32;4.20;;;30.80;68.90;;;;;;4120519;28;20113;-43
2023/01/29 05:59:14;;;;;;;6.80;4.18;;;30.80;68.90;;;;;;4135922;28;20123;-41
2023/01/29 06:01:37;;;;;;;4.82;4.00;;;30.80;68.90;;;;;;4139364;28;20116;-41
2023/01/29 06:03:59;;;;;;;5.93;4.10;;;30.80;69.00;;;;;;4135769;28;20521;-41
2023/01/29 06:06:22;;;;;;;5.22;4.10;;;30.80;69.00;;;;;;4139040;28;20052;-41
2023/01/29 06:08:44;;;;;;;5.50;4.05;;;30.80;69.00;;;;;;4131880;28;20073;-42
2023/01/29 06:11:12;;;;;;;4.63;3.60;;;30.80;69.00;;;;;;4138479;28;20042;-42
2023/01/29 06:13:34;;;;;;;5.28;3.75;;;30.80;69.00;;;;;;4133717;28;20145;-42
2023/01/29 06:15:57;;;;;;;4.57;3.67;;;30.80;69.00;;;;;;4132598;28;20133;-41
2023/01/29 06:18:19;;;;;;;5.03;3.97;;;30.80;69.00;;;;;;4131398;28;20046;-42
2023/01/29 06:20:42;;;;;;;5.90;4.40;;;30.80;69.10;;;;;;4136016;28;20056;-48
2023/01/29 06:23:04;;;;;;;4.85;3.70;;;30.80;69.10;;;;;;4136743;28;20509;-41
2023/01/29 06:25:27;;;;;;;4.40;3.23;;;30.80;69.10;;;;;;4133665;28;20288;-41
2023/01/29 06:27:52;;;;;;;5.22;3.65;;;30.80;69.20;;;;;;4130017;28;20030;-42
2023/01/29 06:30:14;;;;;;;4.00;3.30;;;30.80;69.20;;;;;;4132144;28;20437;-41
2023/01/29 06:32:37;;;;;;;4.67;4.00;;;30.80;69.20;;;;;;4135928;28;20038;-42
2023/01/29 06:35:00;;;;;;;4.72;3.53;;;30.80;69.30;;;;;;4137753;28;20215;-42
2023/01/29 06:37:22;;;;;;;6.60;3.72;;;30.80;69.30;;;;;;4137782;28;20049;-43
2023/01/29 06:39:45;;;;;;;5.35;3.30;;;30.80;69.30;;;;;;4132484;28;20335;-44
2023/01/29 06:42:07;;;;;;;4.95;3.40;;;30.80;69.40;;;;;;4133696;28;20057;-41
2023/01/29 06:44:30;;;;;;;4.32;3.30;;;30.80;69.30;;;;;;4137791;28;20037;-41
2023/01/29 06:46:52;;;;;;;5.18;3.60;;;30.80;69.30;;;;;;4141737;28;20100;-43
2023/01/29 06:49:15;;;;;;;5.00;3.50;;;30.80;69.30;;;;;;4127113;28;20797;-44
2023/01/29 06:51:37;;;;;;;4.35;3.35;;;30.80;69.30;;;;;;4141849;28;20037;-42
2023/01/29 06:53:59;;;;;;;5.28;3.35;;;30.80;69.40;;;;;;4139503;28;20104;-42
2023/01/29 06:56:22;;;;;;;4.47;3.33;;;30.80;69.50;;;;;;4137997;28;20636;-42
2023/01/29 06:58:45;;;;;;;4.00;3.22;;;30.80;69.40;;;;;;4136490;28;20049;-42
2023/01/29 13:45:24;;;;;;;7.10;2.10;;;27.60;66.00;;;;;;4117303;28;21340;-40
2023/01/29 13:47:48;;;;;;;5.32;1.70;;;27.60;66.00;;;;;;4138949;28;20051;-39
2023/01/29 13:50:34;;;;;;;3.13;1.58;;;27.60;66.10;;;;;;4139474;28;20129;-40
2023/01/29 13:53:02;;;;;;;3.17;1.10;;;27.60;66.30;;;;;;4138251;28;20473;-41
2023/01/29 13:55:30;;;;;;;3.33;1.30;;;27.60;66.50;;;;;;4137283;28;20040;-40
2023/01/29 13:57:54;;;;;;;3.22;1.48;;;27.70;66.50;;;;;;4133096;28;20038;-42
2023/01/29 14:00:29;;;;;;;4.80;1.17;;;27.70;66.50;;;;;;4134628;28;20489;-44
2023/01/29 14:02:55;;;;;;;2.33;1.10;;;27.70;66.60;;;;;;4137457;28;20046;-43
2023/01/29 14:05:45;;;;;;;3.30;1.45;;;27.70;66.70;;;;;;4138653;28;20041;-41
2023/01/29 14:08:16;;;;;;;1.42;1.02;;;27.70;66.70;;;;;;4136838;28;20049;-41
2023/01/29 14:10:39;;;;;;;3.75;1.40;;;27.80;66.90;;;;;;4141545;28;20133;-40
2023/01/29 14:13:11;;;;;;;7.03;1.50;;;27.80;67.00;;;;;;4137618;28;20101;-42
2023/01/29 14:15:35;;;;;;;3.28;1.30;;;27.80;66.90;;;;;;4139679;28;20463;-40
2023/01/29 14:18:19;;;;;;;5.85;1.45;;;27.80;67.00;;;;;;4138925;28;20045;-43
2023/01/29 14:20:42;;;;;;;2.65;1.38;;;27.90;67.00;;;;;;4140720;28;20065;-41
2023/01/29 14:23:05;;;;;;;8.95;1.83;;;27.90;67.10;;;;;;4141173;28;20041;-43
2023/01/29 14:25:34;;;;;;;4.78;1.75;;;27.90;67.50;;;;;;4138175;28;20418;-42
2023/01/29 14:27:59;;;;;;;3.38;1.40;;;28.00;67.60;;;;;;4135108;28;20438;-46
2023/01/29 14:30:23;;;;;;;3.28;1.33;;;28.00;67.50;;;;;;4135926;28;20084;-43
2023/01/29 14:32:53;;;;;;;2.40;1.20;;;28.00;67.40;;;;;;4139687;28;20038;-43
2023/01/29 14:35:22;;;;;;;2.75;1.30;;;28.00;68.00;;;;;;4137692;28;20128;-43
2023/01/29 14:37:47;;;;;;;3.17;1.30;;;28.00;67.30;;;;;;4136965;28;20478;-47
2023/01/29 14:40:18;;;;;;;3.78;1.13;;;28.10;67.40;;;;;;4132138;28;20037;-43
2023/01/29 14:42:56;;;;;;;2.25;1.20;;;28.10;67.30;;;;;;4139859;28;20065;-43
2023/01/29 14:45:23;;;;;;;3.17;0.95;;;28.10;67.30;;;;;;4140639;28;20424;-43
2023/01/29 14:47:48;;;;;;;1.58;1.10;;;28.10;67.30;;;;;;4134905;28;20112;-43
2023/01/29 14:50:32;;;;;;;1.58;1.17;;;28.10;67.30;;;;;;4138422;28;20030;-44
2023/01/29 14:53:19;;;;;;;2.17;1.17;;;28.10;67.20;;;;;;4140223;28;20046;-43
2023/01/29 14:55:53;;;;;;;2.92;1.27;;;28.10;67.30;;;;;;4132812;28;20037;-41
2023/01/29 14:58:38;;;;;;;3.60;1.20;;;28.20;67.40;;;;;;4140175;28;20466;-44
2023/01/29 15:01:04;;;;;;;2.03;1.10;;;28.10;67.30;;;;;;4139603;28;20454;-43
2023/01/29 15:03:35;;;;;;;1.35;1.00;;;28.20;67.40;;;;;;4137337;28;20034;-43
2023/01/29 15:05:59;;;;;;;1.80;1.10;;;28.20;67.40;;;;;;4139242;28;20046;-42
2023/01/29 15:08:29;;;;;;;1.15;1.00;;;28.20;67.30;;;;;;4139694;28;20034;-47
2023/01/29 15:14:03;;;;;;;2.50;1.10;;;28.20;67.30;;;;;;4140344;28;20505;-42
2023/01/29 15:16:39;;;;;;;3.45;1.20;;;28.20;67.40;;;;;;4141484;28;20034;-42
2023/01/29 15:19:17;;;;;;;1.25;1.08;;;28.20;67.40;;;;;;4132292;28;20410;-41
2023/01/29 15:21:59;;;;;;;3.10;1.15;;;28.30;67.40;;;;;;4134463;28;20077;-46
2023/01/29 15:24:22;;;;;;;1.60;0.90;;;28.20;67.40;;;;;;4138860;28;20038;-43
2023/01/29 15:26:44;;;;;;;1.20;0.90;;;28.20;67.40;;;;;;4139617;28;20164;-41
2023/01/29 15:29:19;;;;;;;2.25;0.93;;;28.30;67.50;;;;;;4147118;28;20038;-43
2023/01/29 15:31:41;;;;;;;1.83;1.10;;;28.30;67.40;;;;;;4137812;28;20042;-41
2023/01/29 15:34:06;;;;;;;1.67;0.98;;;28.30;67.40;;;;;;4134019;28;20038;-42
2023/01/29 15:36:30;;;;;;;1.38;1.00;;;28.30;67.70;;;;;;4141654;28;20042;-43
2023/01/29 15:39:14;;;;;;;1.50;1.00;;;28.30;67.40;;;;;;4140726;28;20049;-45
2023/01/29 15:41:37;;;;;;;1.10;0.90;;;28.30;67.40;;;;;;4139993;28;20080;-45
2023/01/29 15:44:00;;;;;;;1.95;1.15;;;28.30;67.40;;;;;;4137935;28;20049;-44
2023/01/29 15:46:26;;;;;;;1.45;1.08;;;28.30;67.40;;;;;;4132293;28;20096;-46
2023/01/29 15:48:49;;;;;;;1.52;0.90;;;28.30;67.40;;;;;;4136664;28;20034;-43
2023/01/29 15:51:30;;;;;;;1.67;1.20;;;28.30;67.40;;;;;;4145529;28;20132;-41
2023/01/29 15:54:05;;;;;;;1.00;0.73;;;28.30;67.40;;;;;;4136013;28;20112;-42
2023/01/29 15:57:00;;;;;;;1.25;1.10;;;28.30;67.50;;;;;;4140348;28;20162;-41
2023/01/29 15:59:26;;;;;;;1.75;0.80;;;28.30;67.50;;;;;;4118710;28;20049;-43
2023/01/29 16:01:48;;;;;;;1.50;1.00;;;28.30;67.60;;;;;;4136516;28;20053;-43
2023/01/29 16:04:16;;;;;;;1.40;0.90;;;28.30;67.60;;;;;;4137578;28;20077;-40
2023/01/29 16:06:40;;;;;;;1.65;1.08;;;28.30;67.60;;;;;;4140943;28;20084;-39
2023/01/29 16:09:04;;;;;;;2.33;1.30;;;28.40;68.00;;;;;;4134745;28;20070;-42
2023/01/29 16:11:26;;;;;;;;;;;28.40;67.70;;;;;;4132794;28;20046;-42
2023/01/29 16:13:50;;;;;;;2.17;1.30;;;28.40;67.70;;;;;;4135900;28;19919;-41
2023/01/29 16:16:16;;;;;;;0.82;0.70;;;28.40;67.60;;;;;;4137461;28;20045;-41
2023/01/29 16:18:41;;;;;;;0.63;0.63;;;28.40;67.60;;;;;;4136600;28;20040;-41
2023/01/29 16:21:16;;;;;;;2.10;1.30;;;28.40;67.60;;;;;;4136077;28;20111;-43
2023/01/29 16:23:48;;;;;;;3.20;1.13;;;28.40;67.60;;;;;;4138407;28;20764;-43
2023/01/29 16:26:17;;;;;;;0.93;0.90;;;28.40;67.60;;;;;;4136507;28;20470;-43
2023/01/29 16:28:44;;;;;;;1.30;0.93;;;28.40;67.10;;;;;;4139957;28;20199;-45
2023/01/29 16:31:06;;;;;;;1.50;1.20;;;28.40;67.60;;;;;;4135754;28;20092;-44
2023/01/29 16:33:35;;;;;;;1.27;0.90;;;28.40;67.70;;;;;;4138696;28;20100;-46
2023/01/29 16:35:58;;;;;;;1.00;0.82;;;28.40;67.60;;;;;;4139655;28;20775;-47
2023/01/29 16:38:32;;;;;;;1.67;1.10;;;28.40;67.70;;;;;;4139608;28;20033;-44
2023/01/29 16:41:37;;;;;;;1.60;0.90;;;28.40;67.70;;;;;;4130745;28;20394;-41
2023/01/29 16:44:03;;;;;;;1.33;1.05;;;28.40;67.70;;;;;;4120328;28;20148;-42
2023/01/29 16:46:34;;;;;;;1.92;1.10;;;28.40;67.70;;;;;;4141210;28;20087;-41
2023/01/29 16:48:56;;;;;;;1.17;1.05;;;28.40;67.70;;;;;;4125400;28;20085;-42
2023/01/29 16:51:27;;;;;;;1.30;0.85;;;28.40;67.80;;;;;;4136589;28;20120;-41
2023/01/29 16:54:09;;;;;;;1.00;0.90;;;28.40;67.70;;;;;;4139039;28;20037;-42
2023/01/29 16:56:33;;;;;;;0.98;0.88;;;28.40;67.70;;;;;;4129251;28;20053;-43
2023/01/29 16:58:56;;;;;;;2.15;1.00;;;28.40;67.70;;;;;;4139581;28;20041;-40
2023/01/29 17:01:20;;;;;;;1.52;1.13;;;28.40;67.80;;;;;;4135690;28;20104;-40
2023/01/29 17:03:43;;;;;;;2.80;1.20;;;28.40;67.30;;;;;;4139990;28;20037;-40
2023/01/29 17:06:25;;;;;;;1.77;1.02;;;28.40;67.80;;;;;;4134903;28;20049;-44
2023/01/29 17:08:48;;;;;;;1.73;1.30;;;28.40;67.80;;;;;;4129677;28;20445;-47
2023/01/29 17:11:20;;;;;;;1.52;0.95;;;28.40;67.90;;;;;;4135992;28;20041;-49
2023/01/29 17:13:44;;;;;;;1.90;1.20;;;28.40;68.20;;;;;;4138573;28;20046;-53
2023/01/29 17:16:23;;;;;;;2.10;1.35;;;28.40;68.20;;;;;;4138329;28;20181;-47
2023/01/29 17:18:46;;;;;;;1.65;1.05;;;28.40;67.90;;;;;;4128109;28;20042;-49
2023/01/29 17:21:08;;;;;;;1.55;1.08;;;28.40;67.90;;;;;;4136677;28;20144;-44
2023/01/29 17:23:30;;;;;;;2.28;1.40;;;28.40;67.90;;;;;;4131123;28;20066;-41
2023/01/29 17:25:53;;;;;;;3.85;1.15;;;28.40;68.00;;;;;;4131796;28;20046;-44
2023/01/29 17:28:17;;;;;;;1.37;1.13;;;28.40;67.90;;;;;;4138160;28;20386;-45
2023/01/29 17:30:39;;;;;;;2.13;1.27;;;28.40;68.00;;;;;;4132446;28;20038;-45
2023/01/29 17:33:24;;;;;;;1.73;1.15;;;28.40;68.00;;;;;;4130520;28;20049;-42
2023/01/29 17:35:47;;;;;;;2.00;1.23;;;28.40;68.00;;;;;;4132535;28;20034;-42
2023/01/29 17:38:14;;;;;;;1.40;1.07;;;28.40;68.00;;;;;;4133506;28;20189;-42
2023/01/29 17:40:56;;;;;;;1.77;1.27;;;28.40;68.10;;;;;;4129852;28;20038;-43
2023/01/29 17:43:19;;;;;;;2.08;1.30;;;28.40;68.10;;;;;;4130217;28;20069;-43
2023/01/29 17:45:42;;;;;;;2.00;1.30;;;28.40;68.10;;;;;;4131055;28;20049;-43
2023/01/29 17:48:14;;;;;;;1.50;1.17;;;28.40;68.10;;;;;;4134259;28;20267;-43
2023/01/29 17:50:39;;;;;;;2.30;1.30;;;28.40;68.20;;;;;;4121666;28;20121;-44
2023/01/29 17:53:01;;;;;;;4.45;1.33;;;28.30;68.10;;;;;;4134081;28;20072;-42
2023/01/29 17:55:23;;;;;;;3.22;1.77;;;28.30;68.20;;;;;;4125991;28;20135;-42
2023/01/29 17:57:46;;;;;;;2.75;1.30;;;28.40;68.40;;;;;;4134389;28;20042;-43
2023/01/29 18:00:18;;;;;;;2.83;1.42;;;28.40;68.40;;;;;;4129042;28;20042;-43
2023/01/29 18:02:40;;;;;;;1.58;1.13;;;28.40;68.40;;;;;;4132367;28;20061;-44
2023/01/29 18:05:02;;;;;;;1.40;1.20;;;28.40;68.40;;;;;;4133727;28;20520;-44
2023/01/29 18:07:25;;;;;;;2.45;1.20;;;28.40;68.40;;;;;;4134436;28;20116;-45
2023/01/29 18:09:47;;;;;;;1.70;1.10;;;28.40;68.40;;;;;;4134747;28;20042;-42
2023/01/29 18:12:10;;;;;;;1.90;1.33;;;28.40;68.50;;;;;;4134263;28;20408;-45
2023/01/29 18:14:33;;;;;;;5.15;1.40;;;28.40;68.50;;;;;;4135101;28;20111;-48
2023/01/29 18:16:55;;;;;;;1.30;1.17;;;28.40;68.50;;;;;;4126441;28;20034;-41
2023/01/29 18:19:26;;;;;;;4.18;1.25;;;28.40;68.50;;;;;;4129019;28;20041;-45
2023/01/29 18:21:49;;;;;;;2.63;1.30;;;28.40;68.50;;;;;;4112001;28;20054;-43
2023/01/29 18:24:11;;;;;;;1.83;1.15;;;28.40;68.50;;;;;;4126346;28;20045;-43
2023/01/29 18:26:34;;;;;;;1.85;1.30;;;28.40;68.50;;;;;;4123912;28;20046;-45
2023/01/29 18:28:57;;;;;;;1.95;1.38;;;28.40;68.50;;;;;;4140447;28;20042;-44
2023/01/29 18:31:19;;;;;;;1.38;0.93;;;28.40;68.50;;;;;;4132304;28;20129;-43
2023/01/29 18:33:42;;;;;;;2.13;1.13;;;28.40;68.50;;;;;;4141840;28;20042;-43
2023/01/29 18:36:05;;;;;;;2.17;1.38;;;28.40;68.50;;;;;;4138999;28;20136;-45
2023/01/29 18:38:28;;;;;;;1.83;1.27;;;28.40;68.50;;;;;;4141094;28;20069;-46
2023/01/29 18:40:50;;;;;;;1.60;1.30;;;28.40;68.50;;;;;;4138239;28;20050;-43
2023/01/29 18:43:16;;;;;;;2.28;1.40;;;28.40;68.50;;;;;;4136823;28;20494;-42
2023/01/29 18:45:38;;;;;;;1.75;1.35;;;28.40;68.50;;;;;;4141468;28;20053;-43
2023/01/29 18:48:00;;;;;;;1.65;1.20;;;28.40;68.60;;;;;;4141972;28;20041;-43
2023/01/29 18:50:25;;;;;;;7.00;1.58;;;28.40;68.60;;;;;;4141437;28;20449;-42
2023/01/29 18:52:47;;;;;;;3.65;1.60;;;28.40;68.60;;;;;;4136000;28;20394;-42
2023/01/29 18:55:10;;;;;;;4.60;1.60;;;28.30;68.60;;;;;;4141436;28;20060;-43
2023/01/29 18:57:32;;;;;;;1.98;1.30;;;28.30;68.60;;;;;;4135903;28;20045;-41
2023/01/29 18:59:54;;;;;;;2.15;1.00;;;28.30;68.60;;;;;;4135380;28;20038;-44
2023/01/29 19:02:18;;;;;;;1.45;1.10;;;28.30;68.60;;;;;;4140089;28;20124;-43
2023/01/29 19:04:41;;;;;;;1.33;1.10;;;28.30;68.60;;;;;;4139378;28;20037;-41
2023/01/29 19:07:03;;;;;;;2.47;1.33;;;28.30;68.60;;;;;;4136619;28;20478;-43
2023/01/29 19:09:26;;;;;;;1.70;0.90;;;28.30;68.60;;;;;;4137692;28;20046;-40
2023/01/29 19:11:48;;;;;;;1.65;1.20;;;28.30;68.60;;;;;;4138603;28;20920;-40
2023/01/29 19:14:10;;;;;;;1.20;1.10;;;28.30;68.60;;;;;;4142395;28;20038;-42
2023/01/29 19:16:33;;;;;;;1.77;1.10;;;28.30;68.70;;;;;;4142291;28;20057;-41
2023/01/29 19:18:55;;;;;;;3.47;1.30;;;28.30;68.70;;;;;;4136299;28;20137;-40
2023/01/29 19:21:18;;;;;;;2.85;1.52;;;28.30;68.30;;;;;;4138669;28;20061;-42
2023/01/29 19:23:42;;;;;;;2.08;1.25;;;28.30;68.90;;;;;;4138672;28;20096;-42
2023/01/29 19:26:06;;;;;;;1.42;1.20;;;28.30;68.80;;;;;;4122595;28;20453;-42
2023/01/29 19:28:27;;;;;;;;;;;28.30;68.80;;;;;;4139111;28;20041;-44
2023/01/29 19:30:50;;;;;;;1.73;1.13;;;28.30;68.80;;;;;;4140626;28;19909;-42
2023/01/29 19:33:12;;;;;;;1.83;1.13;;;28.30;68.70;;;;;;4140522;28;20030;-42
2023/01/29 19:35:35;;;;;;;1.58;1.13;;;28.30;68.70;;;;;;4140240;28;20046;-42
2023/01/29 19:37:58;;;;;;;1.73;1.50;;;28.30;68.80;;;;;;4141208;28;20525;-41
2023/01/29 19:40:21;;;;;;;2.45;1.45;;;28.30;68.70;;;;;;4133266;28;20046;-41
2023/01/29 19:42:43;;;;;;;2.10;1.10;;;28.30;68.70;;;;;;4138847;28;20080;-42
2023/01/29 19:45:06;;;;;;;1.92;1.40;;;28.30;68.80;;;;;;4136812;28;20038;-42
2023/01/29 19:47:29;;;;;;;2.22;1.30;;;28.30;68.70;;;;;;4138217;28;20417;-42
2023/01/29 19:49:52;;;;;;;1.55;1.33;;;28.30;68.70;;;;;;4139194;28;20520;-42
2023/01/29 19:52:32;;;;;;;1.50;1.35;;;28.30;68.80;;;;;;4137268;28;20042;-44
2023/01/29 19:54:55;;;;;;;2.17;1.48;;;28.30;68.80;;;;;;4141037;28;20868;-45
2023/01/29 19:57:17;;;;;;;3.25;1.20;;;28.30;68.80;;;;;;4140336;28;20483;-42
2023/01/29 19:59:39;;;;;;;1.63;1.27;;;28.30;68.90;;;;;;4138341;28;20069;-41
2023/01/29 20:02:02;;;;;;;1.20;1.08;;;28.30;69.00;;;;;;4137534;28;20060;-42
2023/01/29 20:04:25;;;;;;;1.75;1.30;;;28.30;68.90;;;;;;4137999;28;20045;-43